LFQQ/LIL METAR and TAF weather

Enter ICAO airport designator
Station Type Date Time Source
LFQQ METAR 2021/06/22 22:00 UTC NOAA

LFQQ 222200Z AUTO 01010KT 9999 FEW030 BKN039 BKN045 13/10 Q1020 TEMPO 4000 RA


Station Type Date Time Source
LFQQ Decoded METAR 2021/06/22 22:00 UTC NOAA

Lille, France (LFQQ) 50-34N 003-06E 52M
Jun 22, 2021 - 06:00 PM EDT / 2021.06.22 2200 UTC
Wind: from the N (010 degrees) at 12 MPH (10 KT):0
Visibility: greater than 7 mile(s):0
Sky conditions: mostly cloudy
Temperature: 55 F (13 C)
Dew Point: 50 F (10 C)
Relative Humidity: 81%
Pressure (altimeter): 30.12 in. Hg (1020 hPa)
ob: LFQQ 222200Z AUTO 01010KT 9999 FEW030 BKN039 BKN045 13/10 Q1020 TEMPO 4000 RA
cycle: 22

Station Type Date Time Source
LFQQ TAF 2021/06/22 18:21 UTC NOAA

TAF LFQQ 221700Z 2218/2324 01011KT 9999 BKN017 OVC060
TEMPO 2218/2306 4000 RA
TEMPO 2306/2309 BKN013

Example: see airport list